Time;durP1;ratioP1;P1;durP2;ratioP2;P2;SDS_P1;SDS_P2;PMS_P1;PMS_P2;Temp;Humidity;BMP_temperature;BMP_pressure;BME280_temperature;BME280_humidity;BME280_pressure;Samples;Min_cycle;Max_cycle;Signal;HPM_P1;HPM_P2
2022/08/09 00:00:19;;;;;;;;;;;14.70;99.90;;;;;;4912668;29;19946;-61
2022/08/09 00:02:49;;;;;;;;;;;14.70;99.90;;;;;;4912700;29;19938;-60
2022/08/09 00:05:19;;;;;;;;;;;14.60;99.90;;;;;;4912604;29;19927;-60
2022/08/09 00:08:09;;;;;;;;;;;14.60;99.90;;;;;;4911552;29;20380;-61
2022/08/09 00:11:00;;;;;;;;;;;14.50;99.90;;;;;;4911397;29;19931;-60
2022/08/09 00:13:32;;;;;;;;;;;14.50;99.90;;;;;;4912437;29;19931;-60
2022/08/09 00:16:04;;;;;;;;;;;14.40;99.90;;;;;;4912843;29;20294;-60
2022/08/09 00:18:33;;;;;;;;;;;14.40;99.90;;;;;;4913010;29;19935;-55
2022/08/09 00:21:03;;;;;;;;;;;14.30;99.90;;;;;;4916435;29;19927;-61
2022/08/09 00:23:31;;;;;;;;;;;14.30;99.90;;;;;;4915883;29;19935;-58
2022/08/09 00:26:19;;;;;;;;;;;14.20;99.90;;;;;;4916263;29;20375;-60
2022/08/09 00:28:57;;;;;;;;;;;14.20;99.90;;;;;;4930566;29;19934;-60
2022/08/09 00:31:26;;;;;;;;;;;14.20;99.90;;;;;;4916020;29;19927;-60
2022/08/09 00:34:13;;;;;;;;;;;14.20;99.90;;;;;;4914567;29;19931;-61
2022/08/09 00:36:46;;;;;;;;;;;14.10;99.90;;;;;;4915987;29;19927;-60
2022/08/09 00:39:15;;;;;;;;;;;14.10;99.90;;;;;;4915949;29;19927;-60
2022/08/09 00:42:03;;;;;;;;;;;14.10;99.90;;;;;;4901853;29;19930;-60
2022/08/09 00:44:51;;;;;;;;;;;14.00;99.90;;;;;;4915750;29;19935;-59
2022/08/09 00:47:20;;;;;;;;;;;14.00;99.90;;;;;;4915994;29;19927;-59
2022/08/09 00:49:52;;;;;;;;;;;14.00;99.90;;;;;;4915645;29;19927;-59
2022/08/09 00:52:23;;;;;;;;;;;13.90;99.90;;;;;;4929395;29;20375;-61
2022/08/09 00:54:58;;;;;;;;;;;13.90;99.90;;;;;;4915892;29;20709;-60
2022/08/09 00:57:28;;;;;;;;;;;13.90;99.90;;;;;;4915482;29;20287;-60
2022/08/09 01:00:07;;;;;;;;;;;13.80;99.90;;;;;;4915477;29;19927;-61
2022/08/09 01:02:51;;;;;;;;;;;13.80;99.90;;;;;;4927863;29;19946;-61
2022/08/09 01:05:51;;;;;;;;;;;13.70;99.90;;;;;;4910601;29;20395;-59
2022/08/09 01:08:39;;;;;;;;;;;13.70;99.90;;;;;;4903115;29;19935;-58
2022/08/09 01:11:30;;;;;;;;;;;13.70;99.90;;;;;;4915721;29;19928;-59
2022/08/09 01:14:18;;;;;;;;;;;13.60;99.90;;;;;;4915072;29;19928;-58
2022/08/09 01:16:48;;;;;;;;;;;13.60;99.90;;;;;;4915407;29;19927;-61
2022/08/09 01:19:37;;;;;;;;;;;13.60;99.90;;;;;;4914349;29;20001;-59
2022/08/09 01:22:41;;;;;;;;;;;13.60;99.90;;;;;;4915378;29;19938;-58
2022/08/09 01:25:23;;;;;;;;;;;13.60;99.90;;;;;;4910775;29;19961;-60
2022/08/09 01:27:52;;;;;;;;;;;13.50;99.90;;;;;;4914984;29;19927;-59
2022/08/09 01:30:25;;;;;;;;;;;13.50;99.90;;;;;;4912390;29;19939;-61
2022/08/09 01:33:05;;;;;;;;;;;13.50;99.90;;;;;;4917766;29;19974;-61
2022/08/09 01:36:05;;;;;;;;;;;13.40;99.90;;;;;;4918206;29;19950;-62
2022/08/09 01:38:35;;;;;;;;;;;13.40;99.90;;;;;;4908992;29;20478;-60
2022/08/09 01:41:12;;;;;;;;;;;13.30;99.90;;;;;;4932352;29;19934;-55
2022/08/09 01:43:42;;;;;;;;;;;13.30;99.90;;;;;;4874621;29;19935;-59
2022/08/09 01:46:25;;;;;;;;;;;13.30;99.90;;;;;;4905850;29;19954;-59
2022/08/09 01:48:58;;;;;;;;;;;13.20;99.90;;;;;;4917625;29;19927;-60
2022/08/09 01:51:39;;;;;;;;;;;13.20;99.90;;;;;;4917850;29;19927;-60
2022/08/09 01:54:12;;;;;;;;;;;13.20;99.90;;;;;;4917939;29;19928;-59
2022/08/09 01:56:41;;;;;;;;;;;13.10;99.90;;;;;;4917765;29;19938;-61
2022/08/09 01:59:16;;;;;;;;;;;13.10;99.90;;;;;;4916175;29;19934;-58
2022/08/09 02:01:46;;;;;;;;;;;13.10;99.90;;;;;;4916664;29;20403;-61
2022/08/09 02:04:28;;;;;;;;;;;13.10;99.90;;;;;;4917700;29;19974;-59
2022/08/09 02:07:10;;;;;;;;;;;13.10;99.90;;;;;;4917383;29;19931;-61
2022/08/09 02:10:02;;;;;;;;;;;13.10;99.90;;;;;;4917816;29;19942;-61
2022/08/09 02:12:32;;;;;;;;;;;13.10;99.90;;;;;;4917661;29;19927;-56
2022/08/09 02:15:00;;;;;;;;;;;13.00;99.90;;;;;;4917259;29;19950;-61
2022/08/09 02:17:30;;;;;;;;;;;13.00;99.90;;;;;;4917742;29;19927;-55
2022/08/09 02:20:17;;;;;;;;;;;13.00;99.90;;;;;;4916158;29;19933;-54
2022/08/09 02:23:08;;;;;;;;;;;13.00;99.90;;;;;;4917342;29;19927;-60
2022/08/09 02:25:38;;;;;;;;;;;13.00;99.90;;;;;;4917556;29;20295;-61
2022/08/09 02:28:17;;;;;;;;;;;13.00;99.90;;;;;;4917149;29;19931;-60
2022/08/09 02:30:53;;;;;;;;;;;12.90;99.90;;;;;;4917234;29;19935;-60
2022/08/09 02:33:25;;;;;;;;;;;12.90;99.90;;;;;;4917369;29;19927;-61
2022/08/09 02:36:14;;;;;;;;;;;12.90;99.90;;;;;;4916071;29;19934;-60
2022/08/09 02:38:46;;;;;;;;;;;12.90;99.90;;;;;;4917427;29;19927;-61
2022/08/09 02:41:27;;;;;;;;;;;12.90;99.90;;;;;;4916430;29;19939;-60
2022/08/09 02:43:59;;;;;;;;;;;12.90;99.90;;;;;;4917150;29;19934;-61
2022/08/09 02:46:35;;;;;;;;;;;12.90;99.90;;;;;;4916844;29;19927;-59
2022/08/09 02:49:04;;;;;;;;;;;12.90;99.90;;;;;;4916934;29;19927;-59
2022/08/09 02:51:35;;;;;;;;;;;12.90;99.90;;;;;;4915701;29;20371;-60
2022/08/09 02:54:08;;;;;;;;;;;12.90;99.90;;;;;;4916914;29;20383;-59
2022/08/09 02:56:36;;;;;;;;;;;12.90;99.90;;;;;;4916610;29;19931;-60
2022/08/09 02:59:05;;;;;;;;;;;12.80;99.90;;;;;;4916929;29;19934;-60
2022/08/09 03:01:35;;;;;;;;;;;12.80;99.90;;;;;;4917048;29;19927;-61
2022/08/09 03:04:22;;;;;;;;;;;12.80;99.90;;;;;;4917030;29;19938;-61
2022/08/09 03:06:57;;;;;;;;;;;12.80;99.90;;;;;;4916615;29;19931;-61
2022/08/09 03:09:40;;;;;;;;;;;12.70;99.90;;;;;;4916675;29;19934;-60
2022/08/09 03:12:10;;;;;;;;;;;12.70;99.90;;;;;;4916616;29;19927;-60
2022/08/09 03:14:41;;;;;;;;;;;12.70;99.90;;;;;;4916582;29;19949;-60
2022/08/09 03:17:10;;;;;;;;;;;12.70;99.90;;;;;;4915369;29;20319;-61
2022/08/09 03:19:47;;;;;;;;;;;12.70;99.90;;;;;;4916455;29;20264;-59
2022/08/09 03:22:28;;;;;;;;;;;12.70;99.90;;;;;;4916379;29;19938;-60
2022/08/09 03:24:57;;;;;;;;;;;12.70;99.90;;;;;;4916267;29;19946;-60
2022/08/09 03:27:50;;;;;;;;;;;12.70;99.90;;;;;;4914954;29;20283;-60
2022/08/09 03:30:17;;;;;;;;;;;12.60;99.90;;;;;;4916271;29;19934;-60
2022/08/09 03:33:07;;;;;;;;;;;12.60;99.90;;;;;;4916220;29;19934;-58
2022/08/09 03:35:46;;;;;;;;;;;12.60;99.90;;;;;;4916103;29;19927;-60
2022/08/09 03:38:35;;;;;;;;;;;12.50;99.90;;;;;;4916150;29;19927;-60
2022/08/09 03:41:08;;;;;;;;;;;12.50;99.90;;;;;;4915983;29;20291;-54
2022/08/09 03:43:45;;;;;;;;;;;12.50;99.90;;;;;;4914897;29;19927;-58
2022/08/09 03:46:33;;;;;;;;;;;12.50;99.90;;;;;;4915986;29;19950;-60
2022/08/09 03:49:02;;;;;;;;;;;12.50;99.90;;;;;;4916004;29;20379;-58
2022/08/09 03:51:31;;;;;;;;;;;12.50;99.90;;;;;;4915757;29;19927;-59
2022/08/09 03:54:19;;;;;;;;;;;12.50;99.90;;;;;;4915926;29;19927;-60
2022/08/09 03:56:57;;;;;;;;;;;12.50;99.90;;;;;;4915804;29;19931;-61
2022/08/09 03:59:25;;;;;;;;;;;12.50;99.90;;;;;;4915976;29;19931;-60
2022/08/09 04:02:09;;;;;;;;;;;12.50;99.90;;;;;;4915845;29;19927;-60
2022/08/09 04:04:36;;;;;;;;;;;12.50;99.90;;;;;;4916093;29;19938;-61
2022/08/09 04:07:05;;;;;;;;;;;12.40;99.90;;;;;;4915568;29;19936;-61
2022/08/09 04:09:32;;;;;;;;;;;12.40;99.90;;;;;;4915778;29;19951;-61
2022/08/09 04:12:22;;;;;;;;;;;12.40;99.90;;;;;;4915660;29;19934;-61
2022/08/09 04:14:57;;;;;;;;;;;12.40;99.90;;;;;;4915419;29;20379;-61
2022/08/09 04:17:38;;;;;;;;;;;12.40;99.90;;;;;;4915871;29;19927;-56
2022/08/09 04:20:09;;;;;;;;;;;12.40;99.90;;;;;;4915841;29;19927;-59
2022/08/09 04:22:37;;;;;;;;;;;12.40;99.90;;;;;;4915817;29;19938;-58
2022/08/09 04:25:10;;;;;;;;;;;12.30;99.90;;;;;;4915582;29;19927;-56
2022/08/09 04:27:42;;;;;;;;;;;12.40;99.90;;;;;;4915479;29;19927;-59
2022/08/09 04:30:16;;;;;;;;;;;12.30;99.90;;;;;;4915624;29;19928;-54
2022/08/09 04:32:47;;;;;;;;;;;12.30;99.90;;;;;;4915693;29;19931;-59
2022/08/09 04:35:15;;;;;;;;;;;12.30;99.90;;;;;;4914583;29;19931;-60
2022/08/09 04:37:43;;;;;;;;;;;12.30;99.90;;;;;;4915421;29;20544;-57
2022/08/09 04:40:13;;;;;;;;;;;12.30;99.90;;;;;;4915510;29;19950;-55
2022/08/09 04:42:55;;;;;;;;;;;12.30;99.90;;;;;;4915589;29;19935;-60
2022/08/09 04:45:23;;;;;;;;;;;12.20;99.90;;;;;;4915538;29;19927;-55
2022/08/09 04:47:58;;;;;;;;;;;12.20;99.90;;;;;;4906054;29;19927;-58
2022/08/09 04:50:31;;;;;;;;;;;12.20;99.90;;;;;;4892966;29;19935;-60
2022/08/09 04:53:06;;;;;;;;;;;12.20;99.90;;;;;;4893236;29;19935;-54
2022/08/09 04:55:40;;;;;;;;;;;12.20;99.90;;;;;;4891921;29;20291;-59
2022/08/09 04:58:25;;;;;;;;;;;12.20;99.90;;;;;;4903713;29;19931;-54
2022/08/09 05:00:54;;;;;;;;;;;12.20;99.90;;;;;;4912136;29;19935;-59
2022/08/09 05:03:22;;;;;;;;;;;12.20;99.90;;;;;;4906203;29;19938;-59
2022/08/09 05:06:12;;;;;;;;;;;12.20;99.90;;;;;;4912357;29;20247;-57
2022/08/09 05:08:54;;;;;;;;;;;12.20;99.90;;;;;;4914166;29;20415;-59
2022/08/09 05:11:28;;;;;;;;;;;12.20;99.90;;;;;;4912545;29;19935;-57
2022/08/09 05:14:02;;;;;;;;;;;12.20;99.90;;;;;;4911886;29;19927;-59
2022/08/09 05:16:33;;;;;;;;;;;12.30;99.90;;;;;;4912252;29;19927;-58
2022/08/09 05:19:21;;;;;;;;;;;12.20;99.90;;;;;;4894601;29;19943;-59
2022/08/09 05:21:52;;;;;;;;;;;12.30;99.90;;;;;;4895360;29;19927;-59
2022/08/09 05:24:23;;;;;;;;;;;12.30;99.90;;;;;;4915274;29;19938;-57
2022/08/09 05:26:51;;;;;;;;;;;12.30;99.90;;;;;;4913132;29;19934;-55
2022/08/09 05:29:19;;;;;;;;;;;12.30;99.90;;;;;;4911486;29;20421;-59
2022/08/09 05:31:51;;;;;;;;;;;12.40;99.90;;;;;;4913735;29;19927;-61
2022/08/09 05:34:25;;;;;;;;;;;12.40;99.90;;;;;;4915017;29;19927;-60
2022/08/09 05:36:59;;;;;;;;;;;12.40;99.90;;;;;;4911279;29;20406;-59
2022/08/09 05:39:35;;;;;;;;;;;12.40;99.90;;;;;;4911990;29;19927;-57
2022/08/09 05:42:12;;;;;;;;;;;12.40;99.90;;;;;;4911517;29;20268;-57
2022/08/09 05:44:48;;;;;;;;;;;12.50;99.90;;;;;;4910079;29;20301;-60
2022/08/09 05:47:18;;;;;;;;;;;12.50;99.90;;;;;;4911241;29;19935;-60
2022/08/09 05:49:49;;;;;;;;;;;12.50;99.90;;;;;;4893770;29;19927;-60
2022/08/09 05:52:37;;;;;;;;;;;12.60;99.90;;;;;;4899188;29;19938;-60
2022/08/09 05:55:06;;;;;;;;;;;12.60;99.90;;;;;;4914964;29;19939;-60
2022/08/09 05:57:40;;;;;;;;;;;12.70;99.90;;;;;;4911946;29;19931;-60
2022/08/09 06:00:25;;;;;;;;;;;12.70;99.90;;;;;;4911575;29;20314;-59
2022/08/09 06:02:55;;;;;;;;;;;12.70;99.90;;;;;;4914703;29;19927;-57
2022/08/09 06:05:24;;;;;;;;;;;12.80;99.90;;;;;;4912516;29;19934;-60
2022/08/09 06:08:11;;;;;;;;;;;12.90;99.90;;;;;;4911069;29;19931;-59
2022/08/09 06:10:39;;;;;;;;;;;12.90;99.90;;;;;;4909612;29;19967;-56
2022/08/09 06:13:08;;;;;;;;;;;12.90;99.90;;;;;;4911099;29;19927;-61
2022/08/09 06:15:47;;;;;;;;;;;13.10;99.90;;;;;;4910158;29;20389;-60
2022/08/09 06:18:19;;;;;;;;;;;13.20;99.90;;;;;;4911212;29;19953;-59
2022/08/09 06:20:50;;;;;;;;;;;13.20;99.90;;;;;;4914197;29;19927;-60
2022/08/09 06:23:25;;;;;;;;;;;13.30;99.90;;;;;;4914028;29;19934;-56
2022/08/09 06:26:13;;;;;;;;;;;13.40;99.90;;;;;;4913351;29;19934;-56
2022/08/09 06:28:52;;;;;;;;;;;13.60;99.90;;;;;;4913804;29;19927;-60
2022/08/09 06:31:28;;;;;;;;;;;13.60;99.90;;;;;;4913850;29;19931;-58
2022/08/09 06:34:06;;;;;;;;;;;13.70;99.90;;;;;;4913696;29;19934;-54
2022/08/09 06:36:33;;;;;;;;;;;13.80;99.90;;;;;;4913768;29;19928;-55
2022/08/09 06:39:01;;;;;;;;;;;13.80;99.90;;;;;;4913705;29;20658;-54
2022/08/09 06:41:38;;;;;;;;;;;13.90;99.90;;;;;;4913731;29;20385;-54
2022/08/09 06:44:26;;;;;;;;;;;13.90;99.90;;;;;;4914023;29;19927;-60
2022/08/09 06:46:53;;;;;;;;;;;14.00;99.90;;;;;;4913979;29;19927;-61
2022/08/09 06:49:22;;;;;;;;;;;14.10;99.90;;;;;;4913423;29;20303;-60
2022/08/09 06:52:10;;;;;;;;;;;14.20;99.90;;;;;;4912389;29;19934;-61
2022/08/09 06:54:42;;;;;;;;;;;14.30;99.90;;;;;;4897244;29;19935;-61
2022/08/09 06:57:13;;;;;;;;;;;14.40;99.90;;;;;;4912325;29;19934;-56
2022/08/09 06:59:40;;;;;;;;;;;14.50;99.90;;;;;;4913558;29;20330;-55
2022/08/09 07:02:28;;;;;;;;;;;14.50;99.90;;;;;;4910961;29;19927;-59
2022/08/09 07:04:59;;;;;;;;;;;14.70;99.90;;;;;;4894831;29;19927;-61
2022/08/09 07:07:26;;;;;;;;;;;14.70;99.90;;;;;;4896099;29;19927;-60
2022/08/09 07:10:14;;;;;;;;;;;14.90;99.90;;;;;;4913602;29;20334;-61
2022/08/09 07:12:58;;;;;;;;;;;15.00;99.90;;;;;;4912993;29;19931;-56
2022/08/09 07:15:26;;;;;;;;;;;15.10;99.90;;;;;;4913243;29;19950;-60
2022/08/09 07:18:13;;;;;;;;;;;15.20;99.90;;;;;;4912920;29;19935;-61
2022/08/09 07:20:41;;;;;;;;;;;15.30;99.90;;;;;;4913165;29;19934;-57
2022/08/09 07:23:11;;;;;;;;;;;15.40;99.90;;;;;;4912945;29;19950;-56
2022/08/09 07:25:48;;;;;;;;;;;15.50;99.90;;;;;;4913042;29;19927;-56
2022/08/09 07:28:31;;;;;;;;;;;15.60;99.90;;;;;;4911379;29;19960;-55
2022/08/09 07:31:03;;;;;;;;;;;15.70;99.90;;;;;;4912967;29;19927;-55
2022/08/09 07:33:31;;;;;;;;;;;15.80;99.90;;;;;;4912414;29;19936;-60
2022/08/09 07:36:19;;;;;;;;;;;15.90;99.90;;;;;;4913143;29;19934;-59
2022/08/09 07:38:48;;;;;;;;;;;16.00;99.90;;;;;;4912907;29;19934;-55
2022/08/09 07:41:26;;;;;;;;;;;16.10;99.90;;;;;;4913125;29;19927;-57
2022/08/09 07:44:05;;;;;;;;;;;16.20;99.90;;;;;;4925709;29;20379;-60
2022/08/09 07:46:33;;;;;;;;;;;16.30;99.90;;;;;;4912727;29;20399;-55
2022/08/09 07:49:03;;;;;;;;;;;16.50;99.90;;;;;;4912693;29;19927;-58
2022/08/09 07:51:31;;;;;;;;;;;16.60;99.90;;;;;;4912772;29;19935;-56
2022/08/09 07:54:19;;;;;;;;;;;16.70;99.90;;;;;;4912636;29;19939;-58
2022/08/09 07:56:56;;;;;;;;;;;16.80;99.90;;;;;;4911583;29;19927;-58
2022/08/09 07:59:25;;;;;;;;;;;16.90;99.90;;;;;;4912889;29;19934;-61
2022/08/09 08:02:12;;;;;;;;;;;17.00;99.90;;;;;;4912640;29;20307;-56
2022/08/09 08:04:46;;;;;;;;;;;17.10;99.90;;;;;;4908262;29;19931;-61
2022/08/09 08:07:15;;;;;;;;;;;17.20;99.90;;;;;;4895455;29;19935;-61
2022/08/09 08:10:03;;;;;;;;;;;17.30;99.90;;;;;;4912437;29;19932;-61
2022/08/09 08:12:37;;;;;;;;;;;17.40;99.90;;;;;;4912411;29;20402;-60
2022/08/09 08:15:11;;;;;;;;;;;17.50;99.90;;;;;;4912742;29;19927;-61
2022/08/09 08:17:40;;;;;;;;;;;17.60;99.90;;;;;;4911226;29;19928;-62
2022/08/09 08:20:25;;;;;;;;;;;17.70;99.90;;;;;;4899142;29;19927;-56
2022/08/09 08:22:56;;;;;;;;;;;17.80;99.90;;;;;;4902058;29;19927;-62
2022/08/09 08:25:31;;;;;;;;;;;17.90;99.90;;;;;;4912580;29;19927;-62
2022/08/09 08:28:12;;;;;;;;;;;18.00;99.90;;;;;;4912457;29;19927;-60
2022/08/09 08:30:42;;;;;;;;;;;18.10;99.90;;;;;;4912130;29;19950;-57
2022/08/09 08:33:10;;;;;;;;;;;18.20;99.90;;;;;;4912141;29;19938;-59
2022/08/09 08:35:54;;;;;;;;;;;18.20;99.90;;;;;;4912364;29;19935;-60
2022/08/09 08:38:27;;;;;;;;;;;18.40;99.90;;;;;;4912706;29;19934;-61
2022/08/09 08:40:55;;;;;;;;;;;18.40;99.90;;;;;;4930838;29;19927;-61
2022/08/09 08:43:23;;;;;;;;;;;18.50;99.90;;;;;;4915837;29;19934;-61
2022/08/09 08:45:56;;;;;;;;;;;18.60;99.90;;;;;;4916123;29;19927;-62
2022/08/09 08:48:43;;;;;;;;;;;18.70;99.90;;;;;;4915892;29;19934;-62
2022/08/09 08:51:21;;;;;;;;;;;18.80;99.90;;;;;;4915396;29;19931;-61
2022/08/09 08:53:51;;;;;;;;;;;18.90;99.90;;;;;;4915773;29;19938;-60
2022/08/09 08:56:37;;;;;;;;;;;19.00;99.90;;;;;;4916143;29;19929;-56
2022/08/09 08:59:09;;;;;;;;;;;19.20;99.90;;;;;;4915464;29;19927;-58
2022/08/09 09:01:48;;;;;;;;;;;19.30;99.90;;;;;;4915506;29;19935;-58
2022/08/09 09:04:21;;;;;;;;;;;19.40;99.80;;;;;;4915669;29;20310;-62
2022/08/09 09:06:55;;;;;;;;;;;19.50;99.40;;;;;;4912279;29;20406;-57
2022/08/09 09:09:25;;;;;;;;;;;19.60;99.70;;;;;;4911489;29;20302;-60
2022/08/09 09:12:14;;;;;;;;;;;19.80;99.80;;;;;;4915349;29;19935;-60
2022/08/09 09:14:44;;;;;;;;;;;19.90;99.80;;;;;;4915300;29;20398;-59
2022/08/09 09:17:11;;;;;;;;;;;20.00;99.30;;;;;;4915413;29;19927;-57
2022/08/09 09:19:42;;;;;;;;;;;20.10;99.20;;;;;;4926629;29;20410;-57
2022/08/09 09:22:15;;;;;;;;;;;20.10;99.20;;;;;;4899143;29;19958;-57
2022/08/09 09:24:44;;;;;;;;;;;20.20;98.40;;;;;;4913918;29;19927;-57
2022/08/09 09:27:13;;;;;;;;;;;20.20;97.70;;;;;;4915187;29;20300;-58
2022/08/09 09:30:08;;;;;;;;;;;20.20;97.70;;;;;;4915263;29;19927;-60
2022/08/09 09:32:43;;;;;;;;;;;20.30;98.20;;;;;;4915024;29;19928;-61
2022/08/09 09:35:11;;;;;;;;;;;20.40;98.50;;;;;;4915080;29;19927;-59
2022/08/09 09:37:44;;;;;;;;;;;20.50;98.50;;;;;;4914699;29;20284;-61
2022/08/09 09:40:12;;;;;;;;;;;20.50;98.30;;;;;;4915114;29;19927;-58
2022/08/09 09:42:39;;;;;;;;;;;20.60;97.50;;;;;;4914878;29;20395;-58
2022/08/09 09:45:12;;;;;;;;;;;20.70;96.20;;;;;;4914956;29;19934;-60
2022/08/09 09:47:53;;;;;;;;;;;20.80;96.70;;;;;;4914685;29;19935;-59
2022/08/09 09:50:40;;;;;;;;;;;20.80;96.90;;;;;;4914472;29;19943;-60
2022/08/09 09:53:19;;;;;;;;;;;21.00;97.10;;;;;;4914550;29;19927;-61
2022/08/09 09:55:56;;;;;;;;;;;21.10;97.00;;;;;;4914772;29;20399;-61
2022/08/09 09:58:45;;;;;;;;;;;21.20;96.70;;;;;;4914659;29;20474;-59
2022/08/09 10:01:19;;;;;;;;;;;21.40;95.80;;;;;;4913569;29;19947;-55
2022/08/09 10:04:11;;;;;;;;;;;21.50;95.90;;;;;;4914195;29;20379;-56
2022/08/09 10:06:43;;;;;;;;;;;21.70;95.80;;;;;;4914524;29;19934;-56
2022/08/09 10:09:14;;;;;;;;;;;21.90;95.20;;;;;;4913334;29;19934;-57
2022/08/09 10:11:57;;;;;;;;;;;22.00;94.90;;;;;;4914328;29;20304;-56
2022/08/09 10:14:40;;;;;;;;;;;22.20;94.80;;;;;;4914322;29;20303;-55
2022/08/09 10:17:16;;;;;;;;;;;22.30;94.90;;;;;;4914405;29;19934;-56
2022/08/09 10:20:18;;;;;;;;;;;22.50;94.80;;;;;;4910227;29;20383;-58
2022/08/09 10:23:11;;;;;;;;;;;22.60;94.30;;;;;;4903888;29;20291;-58
2022/08/09 10:25:40;;;;;;;;;;;22.70;93.50;;;;;;4928825;29;19938;-57
2022/08/09 10:28:32;;;;;;;;;;;22.90;92.70;;;;;;4914034;29;19927;-59
2022/08/09 10:30:59;;;;;;;;;;;23.00;92.30;;;;;;4914100;29;19927;-61
2022/08/09 10:33:47;;;;;;;;;;;23.10;92.40;;;;;;4912424;29;19927;-62
2022/08/09 10:36:35;;;;;;;;;;;23.30;92.60;;;;;;4913854;29;19942;-59
2022/08/09 10:39:03;;;;;;;;;;;23.50;92.30;;;;;;4913835;29;19931;-59
2022/08/09 10:41:42;;;;;;;;;;;23.70;92.10;;;;;;4914063;29;19927;-62
2022/08/09 10:44:09;;;;;;;;;;;23.90;91.00;;;;;;4913676;29;19947;-62
2022/08/09 10:46:57;;;;;;;;;;;24.00;91.20;;;;;;4913938;29;19934;-60
2022/08/09 10:49:47;;;;;;;;;;;24.10;90.70;;;;;;4913972;29;19931;-61
2022/08/09 10:52:45;;;;;;;;;;;24.20;90.40;;;;;;4896855;29;19964;-62
2022/08/09 10:55:23;;;;;;;;;;;24.30;90.00;;;;;;4894150;29;20372;-63
2022/08/09 10:57:51;;;;;;;;;;;24.40;90.20;;;;;;4897666;29;19935;-64
2022/08/09 11:00:28;;;;;;;;;;;24.60;89.10;;;;;;4911197;29;19927;-64
2022/08/09 11:02:55;;;;;;;;;;;24.70;88.40;;;;;;4912760;29;19927;-62
2022/08/09 11:06:03;;;;;;;;;;;24.70;87.30;;;;;;4913460;29;19927;-60
2022/08/09 11:08:44;;;;;;;;;;;24.70;86.50;;;;;;4913453;29;19927;-61
2022/08/09 11:11:18;;;;;;;;;;;24.90;87.40;;;;;;4913338;29;19935;-61
2022/08/09 11:13:45;;;;;;;;;;;25.00;87.20;;;;;;4912660;29;19927;-61
2022/08/09 11:16:30;;;;;;;;;;;25.30;87.10;;;;;;4909963;29;19927;-62
2022/08/09 11:19:03;;;;;;;;;;;25.40;84.60;;;;;;4910018;29;19957;-59
2022/08/09 11:21:57;;;;;;;;;;;25.50;83.70;;;;;;4908493;29;19932;-61
2022/08/09 11:25:04;;;;;;;;;;;25.60;83.80;;;;;;4910031;29;19950;-59
2022/08/09 11:27:40;;;;;;;;;;;25.70;83.40;;;;;;4912844;29;19931;-60
2022/08/09 11:30:28;;;;;;;;;;;25.80;83.40;;;;;;4913179;29;19935;-61
2022/08/09 11:33:23;;;;;;;;;;;26.00;83.20;;;;;;4912949;29;19938;-58
2022/08/09 11:35:55;;;;;;;;;;;26.10;83.60;;;;;;4903422;29;20295;-62
2022/08/09 11:38:27;;;;;;;;;;;26.20;81.10;;;;;;4904302;29;19931;-63
2022/08/09 11:41:10;;;;;;;;;;;26.30;80.20;;;;;;4911706;29;19934;-62
2022/08/09 11:43:47;;;;;;;;;;;26.20;79.70;;;;;;4927102;29;19927;-62
2022/08/09 11:46:15;;;;;;;;;;;26.20;80.40;;;;;;4912932;29;20295;-60
2022/08/09 11:48:59;;;;;;;;;;;26.30;80.70;;;;;;4925144;29;19927;-61
2022/08/09 11:51:51;;;;;;;;;;;26.60;80.70;;;;;;4912458;29;19934;-60
2022/08/09 11:54:39;;;;;;;;;;;26.80;79.40;;;;;;4912768;29;19927;-60
2022/08/09 11:57:30;;;;;;;;;;;27.20;79.30;;;;;;4911596;29;19931;-61
2022/08/09 12:00:17;;;;;;;;;;;27.40;78.70;;;;;;4912941;29;19927;-60
2022/08/09 12:02:55;;;;;;;;;;;27.70;78.10;;;;;;4912457;29;19950;-59
2022/08/09 12:05:34;;;;;;;;;;;28.00;77.50;;;;;;4912520;29;19927;-59
2022/08/09 12:08:14;;;;;;;;;;;28.10;75.10;;;;;;4902546;29;19935;-62
2022/08/09 12:10:49;;;;;;;;;;;28.30;74.80;;;;;;4926156;29;19934;-60
2022/08/09 12:13:35;;;;;;;;;;;28.50;73.70;;;;;;4912591;29;19927;-60
2022/08/09 12:16:28;;;;;;;;;;;28.60;73.40;;;;;;4916533;29;20309;-60
2022/08/09 12:19:07;;;;;;;;;;;29.00;74.50;;;;;;4916334;29;19927;-56
2022/08/09 12:21:43;;;;;;;;;;;29.30;75.00;;;;;;4916766;29;20295;-57
2022/08/09 12:24:22;;;;;;;;;;;29.70;74.10;;;;;;4915988;29;19935;-57
2022/08/09 12:26:54;;;;;;;;;;;29.90;69.60;;;;;;4916559;29;19931;-62
2022/08/09 12:29:51;;;;;;;;;;;30.10;70.20;;;;;;4915061;29;19927;-57
2022/08/09 12:32:38;;;;;;;;;;;30.20;68.50;;;;;;4916163;29;19934;-57
2022/08/09 12:35:07;;;;;;;;;;;30.20;68.10;;;;;;4916174;29;19931;-62
2022/08/09 12:37:39;;;;;;;;;;;30.20;68.30;;;;;;4915872;29;19934;-61
2022/08/09 12:40:19;;;;;;;;;;;30.20;65.80;;;;;;4916401;29;19950;-57
2022/08/09 12:42:49;;;;;;;;;;;30.20;66.40;;;;;;4914850;29;19934;-60
2022/08/09 12:45:18;;;;;;;;;;;30.10;66.70;;;;;;4916104;29;20306;-58
2022/08/09 12:48:05;;;;;;;;;;;30.00;65.80;;;;;;4915871;29;20395;-57
2022/08/09 12:50:47;;;;;;;;;;;30.00;64.30;;;;;;4914320;29;20425;-57
2022/08/09 12:53:36;;;;;;;;;;;30.00;65.90;;;;;;4906692;29;19927;-57
2022/08/09 12:56:07;;;;;;;;;;;30.20;65.00;;;;;;4915865;29;19938;-59
2022/08/09 12:59:09;;;;;;;;;;;30.30;64.80;;;;;;4927476;29;19927;-58
2022/08/09 13:01:38;;;;;;;;;;;30.20;64.60;;;;;;4915877;29;19931;-61
2022/08/09 13:04:16;;;;;;;;;;;30.20;64.40;;;;;;4915432;29;19927;-61
2022/08/09 13:07:15;;;;;;;;;;;30.40;64.70;;;;;;4915637;29;19934;-62
2022/08/09 13:09:46;;;;;;;;;;;30.50;63.00;;;;;;4915529;29;19935;-63
2022/08/09 13:12:26;;;;;;;;;;;30.50;62.80;;;;;;4915187;29;20490;-62
2022/08/09 13:15:04;;;;;;;;;;;30.60;63.10;;;;;;4915159;29;19938;-62
2022/08/09 13:17:34;;;;;;;;;;;30.90;62.30;;;;;;4915395;29;19934;-61
2022/08/09 13:20:32;;;;;;;;;;;31.20;61.70;;;;;;4915623;29;19946;-63
2022/08/09 13:23:20;;;;;;;;;;;31.50;62.50;;;;;;4915110;29;20287;-61
2022/08/09 13:26:08;;;;;;;;;;;31.70;62.40;;;;;;4913769;29;19934;-63
2022/08/09 13:28:36;;;;;;;;;;;31.90;62.30;;;;;;4915160;29;19935;-62
2022/08/09 13:31:07;;;;;;;;;;;31.80;61.90;;;;;;4915340;29;19934;-62
2022/08/09 13:33:55;;;;;;;;;;;31.40;60.70;;;;;;4914991;29;19931;-63
2022/08/09 13:36:23;;;;;;;;;;;30.90;61.90;;;;;;4915201;29;19934;-62
2022/08/09 13:39:10;;;;;;;;;;;30.50;62.10;;;;;;4915028;29;19935;-62
2022/08/09 13:42:00;;;;;;;;;;;30.10;63.20;;;;;;4915126;29;19928;-63
2022/08/09 13:44:29;;;;;;;;;;;29.80;63.10;;;;;;4909034;29;19927;-61
2022/08/09 13:46:57;;;;;;;;;;;29.70;63.60;;;;;;4914719;29;19934;-61
2022/08/09 13:49:44;;;;;;;;;;;29.50;63.60;;;;;;4913454;29;19934;-63
2022/08/09 13:52:30;;;;;;;;;;;29.30;64.20;;;;;;4914566;29;20298;-61
2022/08/09 13:55:00;;;;;;;;;;;29.00;65.00;;;;;;4914324;29;20276;-62
2022/08/09 13:57:32;;;;;;;;;;;29.20;65.50;;;;;;4913357;29;20311;-61
2022/08/09 14:00:18;;;;;;;;;;;29.50;65.50;;;;;;4913445;29;19935;-62
2022/08/09 14:02:47;;;;;;;;;;;30.00;65.00;;;;;;4914609;29;20383;-61
2022/08/09 14:05:31;;;;;;;;;;;30.40;63.90;;;;;;4914304;29;20372;-61
2022/08/09 14:08:18;;;;;;;;;;;31.00;64.20;;;;;;4911227;29;20307;-59
2022/08/09 14:10:47;;;;;;;;;;;31.60;63.90;;;;;;4911396;29;19927;-61
2022/08/09 14:13:20;;;;;;;;;;;32.20;63.80;;;;;;4913271;29;20413;-62
2022/08/09 14:16:08;;;;;;;;;;;32.90;62.50;;;;;;4914568;29;19931;-63
2022/08/09 14:18:38;;;;;;;;;;;33.40;61.60;;;;;;4913070;29;19935;-62
2022/08/09 14:21:16;;;;;;;;;;;33.80;61.30;;;;;;4914593;29;20303;-62
2022/08/09 14:23:45;;;;;;;;;;;34.20;60.30;;;;;;4910829;29;19927;-61
2022/08/09 14:26:26;;;;;;;;;;;34.50;58.00;;;;;;4914612;29;19927;-61
2022/08/09 14:29:02;;;;;;;;;;;34.60;56.80;;;;;;4914173;29;20410;-61
2022/08/09 14:31:35;;;;;;;;;;;34.70;57.10;;;;;;4914403;29;19931;-63
2022/08/09 14:34:18;;;;;;;;;;;34.90;55.20;;;;;;4913950;29;19927;-58
2022/08/09 14:37:02;;;;;;;;;;;34.80;55.90;;;;;;4913215;29;19931;-63
2022/08/09 14:39:37;;;;;;;;;;;34.70;55.60;;;;;;4913794;29;19927;-63
2022/08/09 14:42:14;;;;;;;;;;;34.50;54.80;;;;;;4913766;29;19927;-62
2022/08/09 14:45:04;;;;;;;;;;;34.40;54.90;;;;;;4913909;29;19931;-63
2022/08/09 14:47:51;;;;;;;;;;;34.40;55.60;;;;;;4913741;29;19927;-64
2022/08/09 14:50:26;;;;;;;;;;;34.70;56.30;;;;;;4913507;29;19950;-57
2022/08/09 14:52:54;;;;;;;;;;;35.10;56.00;;;;;;4913168;29;19934;-58
2022/08/09 14:55:21;;;;;;;;;;;35.20;55.30;;;;;;4913764;29;19927;-58
2022/08/09 14:57:49;;;;;;;;;;;35.30;55.00;;;;;;4913454;29;20286;-58
2022/08/09 15:00:16;;;;;;;;;;;35.40;54.50;;;;;;4913536;29;19934;-60
2022/08/09 15:02:44;;;;;;;;;;;35.40;54.00;;;;;;4913081;29;19927;-58
2022/08/09 15:05:14;;;;;;;;;;;35.10;54.00;;;;;;4913641;29;19934;-62
2022/08/09 15:07:43;;;;;;;;;;;35.10;54.70;;;;;;4913185;29;19931;-63
2022/08/09 15:10:23;;;;;;;;;;;35.10;54.50;;;;;;4913367;29;19931;-57
2022/08/09 15:12:55;;;;;;;;;;;35.10;54.60;;;;;;4911679;29;19934;-61